Time;durP1;ratioP1;P1;durP2;ratioP2;P2;SDS_P1;SDS_P2;PMS_P1;PMS_P2;Temp;Humidity;BMP_temperature;BMP_pressure;BME280_temperature;BME280_humidity;BME280_pressure;Samples;Min_cycle;Max_cycle;Signal;HPM_P1;HPM_P2
2023/11/21 00:00:02;;;;;;;;;;;21.60;41.60;;;;;;5113812;28;19977;-61
2023/11/21 00:02:29;;;;;;;;;;;21.60;41.60;;;;;;5095987;28;20006;-61
2023/11/21 00:04:56;;;;;;;;;;;21.60;41.60;;;;;;5114012;28;19924;-61
2023/11/21 00:07:23;;;;;;;;;;;21.60;41.70;;;;;;5113263;28;20348;-61
2023/11/21 00:09:50;;;;;;;;;;;21.50;41.60;;;;;;5112741;28;19970;-61
2023/11/21 00:12:18;;;;;;;;;;;21.60;41.70;;;;;;5113512;28;20030;-61
2023/11/21 00:14:44;;;;;;;;;;;21.60;41.70;;;;;;5113489;28;20023;-61
2023/11/21 00:17:11;;;;;;;;;;;21.60;41.70;;;;;;5113970;28;20307;-61
2023/11/21 00:19:39;;;;;;;;;;;21.60;41.70;;;;;;5097112;28;20042;-61
2023/11/21 00:22:07;;;;;;;;;;;21.60;41.80;;;;;;5117468;28;20026;-61
2023/11/21 00:24:34;;;;;;;;;;;21.60;41.50;;;;;;5117920;28;19924;-61
2023/11/21 00:27:01;;;;;;;;;;;21.60;41.50;;;;;;5116897;28;20014;-61
2023/11/21 00:29:28;;;;;;;;;;;21.60;41.50;;;;;;5117522;28;19966;-61
2023/11/21 00:31:55;;;;;;;;;;;21.60;41.50;;;;;;5117679;28;19935;-61
2023/11/21 00:34:22;;;;;;;;;;;21.60;41.50;;;;;;5117700;28;19977;-61
2023/11/21 00:36:49;;;;;;;;;;;21.60;41.50;;;;;;5117948;28;19928;-61
2023/11/21 00:39:16;;;;;;;;;;;21.60;41.50;;;;;;5117240;28;19924;-61
2023/11/21 00:41:44;;;;;;;;;;;21.60;41.50;;;;;;5117314;28;19967;-61
2023/11/21 00:44:11;;;;;;;;;;;21.50;41.40;;;;;;5096222;28;19967;-61
2023/11/21 00:46:38;;;;;;;;;;;21.50;41.40;;;;;;5097019;28;20324;-61
2023/11/21 00:49:05;;;;;;;;;;;21.60;41.50;;;;;;5097177;28;19960;-61
2023/11/21 00:51:32;;;;;;;;;;;21.60;41.50;;;;;;5111582;28;19928;-61
2023/11/21 00:53:59;;;;;;;;;;;21.50;41.40;;;;;;5117224;28;19960;-61
2023/11/21 00:56:27;;;;;;;;;;;21.60;41.50;;;;;;5117102;28;20030;-61
2023/11/21 00:58:54;;;;;;;;;;;21.50;41.40;;;;;;5115792;28;20392;-61
2023/11/21 01:01:24;;;;;;;;;;;21.50;41.40;;;;;;5117308;28;19969;-61
2023/11/21 01:03:52;;;;;;;;;;;21.50;41.50;;;;;;5116882;28;19924;-62
2023/11/21 01:06:19;;;;;;;;;;;21.50;41.40;;;;;;5116749;28;19924;-61
2023/11/21 01:08:46;;;;;;;;;;;21.50;41.50;;;;;;5098862;28;19923;-61
2023/11/21 01:11:14;;;;;;;;;;;21.50;41.50;;;;;;5116721;28;19924;-61
2023/11/21 01:13:42;;;;;;;;;;;21.50;41.50;;;;;;5116729;28;19974;-61
2023/11/21 01:16:09;;;;;;;;;;;21.50;41.50;;;;;;5115273;28;19931;-61
2023/11/21 01:18:36;;;;;;;;;;;21.50;41.40;;;;;;5116570;28;20367;-61
2023/11/21 01:21:03;;;;;;;;;;;21.50;41.40;;;;;;5116480;28;19924;-61
2023/11/21 01:23:30;;;;;;;;;;;21.50;41.40;;;;;;5116741;28;20023;-61
2023/11/21 01:25:57;;;;;;;;;;;21.50;41.50;;;;;;5116149;28;20050;-61
2023/11/21 01:28:24;;;;;;;;;;;21.50;41.40;;;;;;5116774;28;19991;-61
2023/11/21 01:30:51;;;;;;;;;;;21.50;41.40;;;;;;5115436;28;19974;-61
2023/11/21 01:33:18;;;;;;;;;;;21.50;41.90;;;;;;5115590;28;19927;-61
2023/11/21 01:35:46;;;;;;;;;;;21.50;41.40;;;;;;5116179;28;20413;-61
2023/11/21 01:38:14;;;;;;;;;;;21.50;41.50;;;;;;5115676;28;19927;-61
2023/11/21 01:40:42;;;;;;;;;;;21.50;41.40;;;;;;5116154;28;19924;-61
2023/11/21 01:43:09;;;;;;;;;;;21.50;41.50;;;;;;5116201;28;20380;-61
2023/11/21 01:45:36;;;;;;;;;;;21.50;41.50;;;;;;5116088;28;19924;-61
2023/11/21 01:48:03;;;;;;;;;;;21.50;41.40;;;;;;5115710;28;20401;-61
2023/11/21 01:50:30;;;;;;;;;;;21.50;41.40;;;;;;5097530;28;19931;-61
2023/11/21 01:52:58;;;;;;;;;;;21.50;41.40;;;;;;5116143;28;19924;-62
2023/11/21 01:55:25;;;;;;;;;;;21.50;41.40;;;;;;5115912;28;20011;-61
2023/11/21 01:57:54;;;;;;;;;;;21.50;41.40;;;;;;5115692;28;19928;-65
2023/11/21 02:00:22;;;;;;;;;;;21.50;41.30;;;;;;5116079;28;20121;-61
2023/11/21 02:02:49;;;;;;;;;;;21.50;41.30;;;;;;5116232;28;19924;-61
2023/11/21 02:05:18;;;;;;;;;;;21.50;41.30;;;;;;5114964;28;20030;-61
2023/11/21 02:07:47;;;;;;;;;;;21.50;41.20;;;;;;5115734;28;19927;-62
2023/11/21 02:10:15;;;;;;;;;;;21.50;41.30;;;;;;5116035;28;19932;-62
2023/11/21 02:12:44;;;;;;;;;;;21.50;41.30;;;;;;5115654;28;20387;-64
2023/11/21 02:15:20;;;;;;;;;;;21.50;41.20;;;;;;5115457;28;19931;-62
2023/11/21 02:17:51;;;;;;;;;;;21.50;41.20;;;;;;5115528;28;19923;-61
2023/11/21 02:20:20;;;;;;;;;;;21.50;41.20;;;;;;5107115;28;20257;-65
2023/11/21 02:22:55;;;;;;;;;;;21.50;41.30;;;;;;5113632;28;19966;-62
2023/11/21 02:25:22;;;;;;;;;;;21.50;41.30;;;;;;5097408;28;19924;-64
2023/11/21 02:27:49;;;;;;;;;;;21.50;41.30;;;;;;5115087;28;20349;-62
2023/11/21 02:30:17;;;;;;;;;;;21.50;41.30;;;;;;5115100;28;20322;-61
2023/11/21 02:32:44;;;;;;;;;;;21.50;41.30;;;;;;5115504;28;20358;-62
2023/11/21 02:35:15;;;;;;;;;;;21.50;41.30;;;;;;5115416;28;19924;-61
2023/11/21 02:37:42;;;;;;;;;;;21.50;41.30;;;;;;5115518;28;19924;-61
2023/11/21 02:40:12;;;;;;;;;;;21.50;41.30;;;;;;5113460;28;19930;-61
2023/11/21 02:42:40;;;;;;;;;;;21.50;41.20;;;;;;5114442;28;19924;-61
2023/11/21 02:45:07;;;;;;;;;;;21.50;41.20;;;;;;5114587;28;19930;-61
2023/11/21 02:47:35;;;;;;;;;;;21.50;41.30;;;;;;5115156;28;19924;-61
2023/11/21 02:50:02;;;;;;;;;;;21.50;41.30;;;;;;5114579;28;19924;-61
2023/11/21 02:52:29;;;;;;;;;;;21.50;41.20;;;;;;5115093;28;19927;-61
2023/11/21 02:54:56;;;;;;;;;;;21.50;41.20;;;;;;5113255;28;20015;-61
2023/11/21 02:57:23;;;;;;;;;;;21.50;41.30;;;;;;5115103;28;20356;-61
2023/11/21 02:59:50;;;;;;;;;;;21.50;41.20;;;;;;5114837;28;20384;-61
2023/11/21 03:02:17;;;;;;;;;;;21.50;41.30;;;;;;5114708;28;19963;-61
2023/11/21 03:04:44;;;;;;;;;;;21.50;41.20;;;;;;5114546;28;19924;-61
2023/11/21 03:07:11;;;;;;;;;;;21.50;41.20;;;;;;5114264;28;20290;-62
2023/11/21 03:09:38;;;;;;;;;;;21.50;41.10;;;;;;5114351;28;19924;-61
2023/11/21 03:12:05;;;;;;;;;;;21.50;41.20;;;;;;5113706;28;20014;-61
2023/11/21 03:14:33;;;;;;;;;;;21.50;41.20;;;;;;5114340;28;20356;-62
2023/11/21 03:17:00;;;;;;;;;;;21.50;41.20;;;;;;5114911;28;20318;-61
2023/11/21 03:19:27;;;;;;;;;;;21.50;41.20;;;;;;5114317;28;19924;-61
2023/11/21 03:21:54;;;;;;;;;;;21.50;41.20;;;;;;5114085;28;19977;-61
2023/11/21 03:24:22;;;;;;;;;;;21.50;41.20;;;;;;5114200;28;19967;-61
2023/11/21 03:26:50;;;;;;;;;;;21.50;41.30;;;;;;5113729;28;20376;-61
2023/11/21 03:29:17;;;;;;;;;;;21.40;41.20;;;;;;5113427;28;20279;-61
2023/11/21 03:31:44;;;;;;;;;;;21.50;41.20;;;;;;5113950;28;20011;-61
2023/11/21 03:34:15;;;;;;;;;;;21.50;41.10;;;;;;5114358;28;19927;-61
2023/11/21 03:36:43;;;;;;;;;;;21.50;41.10;;;;;;5114424;28;19927;-61
2023/11/21 03:39:10;;;;;;;;;;;21.50;41.10;;;;;;5114202;28;19928;-61
2023/11/21 03:41:37;;;;;;;;;;;21.50;41.10;;;;;;5113903;28;20014;-61
2023/11/21 03:44:04;;;;;;;;;;;21.50;41.10;;;;;;5114044;28;19927;-61
2023/11/21 03:46:31;;;;;;;;;;;21.50;41.10;;;;;;5094077;28;20291;-61
2023/11/21 03:48:58;;;;;;;;;;;21.50;41.00;;;;;;5093537;28;19924;-61
2023/11/21 03:51:25;;;;;;;;;;;21.50;41.10;;;;;;5093336;28;20388;-61
2023/11/21 03:53:52;;;;;;;;;;;21.50;41.10;;;;;;5093127;28;20356;-61
2023/11/21 03:56:20;;;;;;;;;;;21.50;41.10;;;;;;5113237;28;19927;-61
2023/11/21 03:58:48;;;;;;;;;;;21.50;41.10;;;;;;5113320;28;19927;-63
2023/11/21 04:01:20;;;;;;;;;;;21.50;41.10;;;;;;5112327;28;19931;-66
2023/11/21 04:03:48;;;;;;;;;;;21.50;41.10;;;;;;5113654;28;19923;-63
2023/11/21 04:06:17;;;;;;;;;;;21.50;41.60;;;;;;5113454;28;20046;-61
2023/11/21 04:08:44;;;;;;;;;;;21.50;41.10;;;;;;5112900;28;19975;-61
2023/11/21 04:11:12;;;;;;;;;;;21.50;41.10;;;;;;5113268;28;19931;-66
2023/11/21 04:13:39;;;;;;;;;;;21.50;41.10;;;;;;5113821;28;19954;-62
2023/11/21 04:16:07;;;;;;;;;;;21.50;41.10;;;;;;5113521;28;20043;-64
2023/11/21 04:18:38;;;;;;;;;;;21.50;41.10;;;;;;5103919;28;19924;-68
2023/11/21 04:21:05;;;;;;;;;;;21.50;41.10;;;;;;5095439;28;20015;-63
2023/11/21 04:23:33;;;;;;;;;;;21.50;41.10;;;;;;5113817;28;19975;-61
2023/11/21 04:26:01;;;;;;;;;;;21.50;41.10;;;;;;5113275;28;20342;-61
2023/11/21 04:28:29;;;;;;;;;;;21.50;41.10;;;;;;5113102;28;19924;-61
2023/11/21 04:30:56;;;;;;;;;;;21.50;41.10;;;;;;5113682;28;19975;-61
2023/11/21 04:33:23;;;;;;;;;;;21.50;41.10;;;;;;5113530;28;19931;-61
2023/11/21 04:35:50;;;;;;;;;;;21.50;41.10;;;;;;5111726;28;19924;-61
2023/11/21 04:38:18;;;;;;;;;;;21.40;41.10;;;;;;5113527;28;20014;-61
2023/11/21 04:40:46;;;;;;;;;;;21.40;41.00;;;;;;5113057;28;19923;-61
2023/11/21 04:43:13;;;;;;;;;;;21.50;41.00;;;;;;5113288;28;19970;-61
2023/11/21 04:45:41;;;;;;;;;;;21.50;41.00;;;;;;5112274;28;19938;-61
2023/11/21 04:48:08;;;;;;;;;;;21.50;41.00;;;;;;5113280;28;19927;-61
2023/11/21 04:50:35;;;;;;;;;;;21.50;40.90;;;;;;5111544;28;19923;-61
2023/11/21 04:53:02;;;;;;;;;;;21.50;40.80;;;;;;5108921;28;19954;-61
2023/11/21 04:55:29;;;;;;;;;;;21.60;40.70;;;;;;5093255;28;20435;-61
2023/11/21 04:57:56;;;;;;;;;;;21.50;40.70;;;;;;5106729;28;19927;-61
2023/11/21 05:00:23;;;;;;;;;;;21.50;40.70;;;;;;5102123;28;19927;-61
2023/11/21 05:02:50;;;;;;;;;;;21.50;40.70;;;;;;5102062;28;20015;-61
2023/11/21 05:05:18;;;;;;;;;;;21.50;40.80;;;;;;5113374;28;19977;-61
2023/11/21 05:07:45;;;;;;;;;;;21.50;40.80;;;;;;5114892;28;19976;-61
2023/11/21 05:10:14;;;;;;;;;;;21.50;40.80;;;;;;5116687;28;19931;-61
2023/11/21 05:12:41;;;;;;;;;;;21.50;40.80;;;;;;5116096;28;19969;-61
2023/11/21 05:15:12;;;;;;;;;;;21.50;40.90;;;;;;5115960;28;19928;-61
2023/11/21 05:17:43;;;;;;;;;;;21.50;40.90;;;;;;5110770;28;20028;-61
2023/11/21 05:20:13;;;;;;;;;;;21.50;40.90;;;;;;5115809;28;20384;-61
2023/11/21 05:22:41;;;;;;;;;;;21.50;40.90;;;;;;5116216;28;19928;-61
2023/11/21 05:25:09;;;;;;;;;;;21.50;40.90;;;;;;5113851;28;20018;-61
2023/11/21 05:27:36;;;;;;;;;;;21.50;40.90;;;;;;5115754;28;20412;-61
2023/11/21 05:30:06;;;;;;;;;;;21.50;40.90;;;;;;5116370;28;19930;-61
2023/11/21 05:32:34;;;;;;;;;;;21.50;41.00;;;;;;5116603;28;19924;-61
2023/11/21 05:35:01;;;;;;;;;;;21.50;41.00;;;;;;5098678;28;19928;-61
2023/11/21 05:37:28;;;;;;;;;;;21.50;40.90;;;;;;5098253;28;19986;-61
2023/11/21 05:39:59;;;;;;;;;;;21.50;40.90;;;;;;5098154;28;19927;-61
2023/11/21 05:42:27;;;;;;;;;;;21.50;40.80;;;;;;5111158;28;20322;-61
2023/11/21 05:44:54;;;;;;;;;;;21.50;41.10;;;;;;5095870;28;19931;-61
2023/11/21 05:47:21;;;;;;;;;;;21.50;40.80;;;;;;5096068;28;19956;-61
2023/11/21 05:49:50;;;;;;;;;;;21.50;40.90;;;;;;5097722;28;19931;-61
2023/11/21 05:52:17;;;;;;;;;;;21.50;40.90;;;;;;5097047;28;19974;-61
2023/11/21 05:54:45;;;;;;;;;;;21.50;41.40;;;;;;5115309;28;19928;-61
2023/11/21 05:57:12;;;;;;;;;;;21.60;40.90;;;;;;5110387;28;19951;-61
2023/11/21 05:59:38;;;;;;;;;;;21.50;40.90;;;;;;5121397;27;20051;-61
2023/11/21 06:02:07;;;;;;;;;;;21.60;41.00;;;;;;5126038;27;19970;-61
2023/11/21 06:04:34;;;;;;;;;;;21.60;40.90;;;;;;5120597;27;19931;-61
2023/11/21 06:07:02;;;;;;;;;;;21.50;40.90;;;;;;5113752;28;19924;-61
2023/11/21 06:09:28;;;;;;;;;;;21.50;40.90;;;;;;5113411;28;19982;-60
2023/11/21 06:11:56;;;;;;;;;;;21.50;40.90;;;;;;5094724;27;19947;-60
2023/11/21 06:14:23;;;;;;;;;;;21.50;41.10;;;;;;5111513;28;20375;-62
2023/11/21 06:16:52;;;;;;;;;;;21.60;41.40;;;;;;5110992;28;19924;-61
2023/11/21 06:19:19;;;;;;;;;;;21.50;41.60;;;;;;5113431;28;19946;-60
2023/11/21 06:21:47;;;;;;;;;;;21.60;42.20;;;;;;5112364;28;19980;-60
2023/11/21 06:24:15;;;;;;;;;;;21.60;42.80;;;;;;5108861;28;19939;-64
2023/11/21 06:26:44;;;;;;;;;;;21.60;42.90;;;;;;5103789;27;19975;-63
2023/11/21 06:29:11;;;;;;;;;;;21.70;43.10;;;;;;5104278;27;19935;-54
2023/11/21 06:31:38;;;;;;;;;;;21.70;43.40;;;;;;5102521;27;19931;-59
2023/11/21 06:34:05;;;;;;;;;;;21.70;43.40;;;;;;5105049;27;20308;-59
2023/11/21 06:36:33;;;;;;;;;;;21.80;43.40;;;;;;5106071;27;20333;-60
2023/11/21 06:39:00;;;;;;;;;;;21.80;43.40;;;;;;5106400;27;20431;-61
2023/11/21 06:41:27;;;;;;;;;;;21.80;43.50;;;;;;5104030;27;19973;-61
2023/11/21 06:43:54;;;;;;;;;;;21.90;43.60;;;;;;5105278;27;19927;-59
2023/11/21 06:46:21;;;;;;;;;;;21.90;43.40;;;;;;5106302;27;19959;-60
2023/11/21 06:48:50;;;;;;;;;;;22.00;43.40;;;;;;5100005;28;19932;-61
2023/11/21 06:51:17;;;;;;;;;;;22.00;43.10;;;;;;5103064;28;20433;-60
2023/11/21 06:53:44;;;;;;;;;;;22.00;42.90;;;;;;5101030;27;20273;-62
2023/11/21 06:56:18;;;;;;;;;;;22.00;42.60;;;;;;5100301;28;19931;-61
2023/11/21 06:58:46;;;;;;;;;;;22.00;42.30;;;;;;5092240;27;19932;-63
2023/11/21 07:01:13;;;;;;;;;;;22.00;42.20;;;;;;5080391;28;19931;-61
2023/11/21 07:03:41;;;;;;;;;;;22.00;42.40;;;;;;5083757;28;19939;-62
2023/11/21 07:06:08;;;;;;;;;;;22.10;42.60;;;;;;5106117;27;19935;-56
2023/11/21 07:08:35;;;;;;;;;;;22.10;42.90;;;;;;5103407;27;20041;-61
2023/11/21 07:11:03;;;;;;;;;;;22.10;43.10;;;;;;5105616;28;19931;-62
2023/11/21 07:13:30;;;;;;;;;;;22.10;43.10;;;;;;5105024;28;19931;-61
2023/11/21 07:15:59;;;;;;;;;;;22.20;43.20;;;;;;5102740;28;19935;-62
2023/11/21 07:18:26;;;;;;;;;;;22.20;43.20;;;;;;5085055;28;19974;-62
2023/11/21 07:20:54;;;;;;;;;;;22.20;43.30;;;;;;5098745;27;19924;-61
2023/11/21 07:23:22;;;;;;;;;;;22.20;43.30;;;;;;5108175;27;19978;-56
2023/11/21 07:25:49;;;;;;;;;;;22.30;43.40;;;;;;5101266;28;19927;-62
2023/11/21 07:28:16;;;;;;;;;;;22.40;43.60;;;;;;5103328;28;20362;-62
2023/11/21 07:30:43;;;;;;;;;;;22.30;43.70;;;;;;5081985;28;19932;-61
2023/11/21 07:33:10;;;;;;;;;;;22.40;43.90;;;;;;5103362;28;19923;-61
2023/11/21 07:35:38;;;;;;;;;;;22.40;43.90;;;;;;5104256;28;19928;-61
2023/11/21 07:38:05;;;;;;;;;;;22.50;43.90;;;;;;5100938;27;19948;-57
2023/11/21 07:40:32;;;;;;;;;;;22.50;43.90;;;;;;5098961;28;20406;-61
2023/11/21 07:42:59;;;;;;;;;;;22.50;43.80;;;;;;5101710;28;19927;-63
2023/11/21 07:45:27;;;;;;;;;;;22.50;43.80;;;;;;5101083;28;19975;-61
2023/11/21 07:47:55;;;;;;;;;;;22.60;43.70;;;;;;5103093;28;19971;-62
2023/11/21 07:50:22;;;;;;;;;;;22.60;43.50;;;;;;5102034;27;19938;-61
2023/11/21 07:52:49;;;;;;;;;;;22.60;43.50;;;;;;5083861;28;19927;-61
2023/11/21 07:55:17;;;;;;;;;;;22.60;43.40;;;;;;5101790;28;19985;-61
2023/11/21 07:57:47;;;;;;;;;;;22.60;43.20;;;;;;5103726;28;19936;-62
2023/11/21 08:00:15;;;;;;;;;;;22.60;43.10;;;;;;5101833;28;19935;-60
2023/11/21 08:02:42;;;;;;;;;;;22.60;43.00;;;;;;5099969;28;19997;-62
2023/11/21 08:05:10;;;;;;;;;;;22.60;42.90;;;;;;5083833;28;20027;-62
2023/11/21 08:07:50;;;;;;;;;;;22.70;42.90;;;;;;5099287;28;20380;-59
2023/11/21 08:10:18;;;;;;;;;;;22.70;42.90;;;;;;5100474;28;19932;-59
2023/11/21 08:12:45;;;;;;;;;;;22.70;42.80;;;;;;5097439;28;20303;-60
2023/11/21 08:15:12;;;;;;;;;;;22.70;42.80;;;;;;5099815;28;20375;-63
2023/11/21 08:17:39;;;;;;;;;;;22.70;42.80;;;;;;5100482;28;19947;-58
2023/11/21 08:20:08;;;;;;;;;;;22.80;42.90;;;;;;5101088;28;19971;-60
2023/11/21 08:22:36;;;;;;;;;;;22.80;42.90;;;;;;5103159;28;19936;-61
2023/11/21 08:25:04;;;;;;;;;;;22.80;43.00;;;;;;5101425;28;19957;-61
2023/11/21 08:27:31;;;;;;;;;;;22.80;43.00;;;;;;5103827;28;19943;-60
2023/11/21 08:29:58;;;;;;;;;;;22.90;43.00;;;;;;5102538;28;19932;-62
2023/11/21 08:32:25;;;;;;;;;;;22.90;42.90;;;;;;5100312;28;20415;-61
2023/11/21 08:34:53;;;;;;;;;;;22.90;42.70;;;;;;5101115;28;20441;-62
2023/11/21 08:37:20;;;;;;;;;;;22.90;42.80;;;;;;5085044;28;20277;-61
2023/11/21 08:39:48;;;;;;;;;;;23.00;42.90;;;;;;5101191;28;20273;-61
2023/11/21 08:42:15;;;;;;;;;;;23.00;43.00;;;;;;5112637;27;20498;-61
2023/11/21 08:44:42;;;;;;;;;;;23.00;43.10;;;;;;5108489;27;19931;-62
2023/11/21 08:47:10;;;;;;;;;;;23.00;43.10;;;;;;5108452;27;19923;-62
2023/11/21 08:49:37;;;;;;;;;;;23.00;43.10;;;;;;5105084;28;21027;-63
2023/11/21 08:52:05;;;;;;;;;;;23.00;43.10;;;;;;5103057;28;19932;-61
2023/11/21 08:54:32;;;;;;;;;;;23.00;43.00;;;;;;5096753;27;19953;-61
2023/11/21 08:56:59;;;;;;;;;;;23.10;43.10;;;;;;5106222;27;19928;-61
2023/11/21 08:59:26;;;;;;;;;;;23.10;42.90;;;;;;5103649;27;20415;-60
2023/11/21 09:01:53;;;;;;;;;;;23.10;42.80;;;;;;5104556;27;20322;-61
2023/11/21 09:04:20;;;;;;;;;;;23.10;42.80;;;;;;5106807;27;19931;-62
2023/11/21 09:06:47;;;;;;;;;;;23.10;42.80;;;;;;5110628;27;20049;-64
2023/11/21 09:09:14;;;;;;;;;;;23.10;43.30;;;;;;5108835;28;19931;-62
2023/11/21 09:11:44;;;;;;;;;;;23.10;42.80;;;;;;5104292;27;20425;-62
2023/11/21 09:14:13;;;;;;;;;;;23.10;42.80;;;;;;5107936;27;19931;-64
2023/11/21 09:16:40;;;;;;;;;;;23.20;42.80;;;;;;5101745;27;20429;-63
2023/11/21 09:19:07;;;;;;;;;;;23.20;42.70;;;;;;5108560;27;19979;-63
2023/11/21 09:21:34;;;;;;;;;;;23.20;42.80;;;;;;5107047;27;19936;-63
2023/11/21 09:24:02;;;;;;;;;;;23.20;42.80;;;;;;5080519;28;19956;-62
2023/11/21 09:26:29;;;;;;;;;;;23.20;42.70;;;;;;5109156;27;19961;-60
2023/11/21 09:28:56;;;;;;;;;;;23.20;42.60;;;;;;5102925;28;20070;-60
2023/11/21 09:31:24;;;;;;;;;;;23.30;42.70;;;;;;5097494;28;20284;-61
2023/11/21 09:33:51;;;;;;;;;;;23.30;42.70;;;;;;5086227;28;19967;-60
2023/11/21 09:36:18;;;;;;;;;;;23.30;42.70;;;;;;5099491;28;20514;-61
2023/11/21 09:38:45;;;;;;;;;;;23.30;42.80;;;;;;5104567;28;20000;-63
2023/11/21 09:41:18;;;;;;;;;;;23.30;42.80;;;;;;5093432;28;19939;-60
2023/11/21 09:43:47;;;;;;;;;;;23.30;42.90;;;;;;5101232;27;20014;-61
2023/11/21 09:46:19;;;;;;;;;;;23.30;42.90;;;;;;5080522;28;19934;-62
2023/11/21 09:48:51;;;;;;;;;;;23.40;43.00;;;;;;5104424;28;19931;-61
2023/11/21 09:51:20;;;;;;;;;;;23.40;42.90;;;;;;5096963;27;19932;-62
2023/11/21 09:53:49;;;;;;;;;;;23.40;42.90;;;;;;5106783;27;20644;-61
2023/11/21 09:56:19;;;;;;;;;;;23.40;42.90;;;;;;5084417;27;19932;-63
2023/11/21 09:58:46;;;;;;;;;;;23.40;43.00;;;;;;5084526;28;19932;-62
2023/11/21 10:01:16;;;;;;;;;;;23.40;43.00;;;;;;5100804;28;19931;-62
2023/11/21 10:03:43;;;;;;;;;;;23.40;42.90;;;;;;5100603;27;19969;-63
2023/11/21 10:06:16;;;;;;;;;;;23.50;43.00;;;;;;5101847;27;20356;-62
2023/11/21 10:08:43;;;;;;;;;;;23.50;42.80;;;;;;5104177;28;20401;-63
2023/11/21 10:11:24;;;;;;;;;;;23.50;42.80;;;;;;5088707;28;19928;-62
2023/11/21 10:13:57;;;;;;;;;;;23.40;42.70;;;;;;5100644;27;19927;-62
2023/11/21 10:16:26;;;;;;;;;;;23.50;43.00;;;;;;5105049;28;19958;-63
2023/11/21 10:18:57;;;;;;;;;;;23.50;43.10;;;;;;5104785;27;19932;-61
2023/11/21 10:21:38;;;;;;;;;;;23.50;43.00;;;;;;5109977;27;19927;-62
2023/11/21 10:24:06;;;;;;;;;;;23.60;43.10;;;;;;5111781;27;19923;-56
2023/11/21 10:26:33;;;;;;;;;;;23.60;42.90;;;;;;5105129;28;19923;-61
2023/11/21 10:29:16;;;;;;;;;;;23.60;42.90;;;;;;5106117;27;20326;-61
2023/11/21 10:31:45;;;;;;;;;;;23.60;42.80;;;;;;5104497;28;19927;-62
2023/11/21 10:34:16;;;;;;;;;;;23.60;42.80;;;;;;5099371;27;19927;-63
2023/11/21 10:36:43;;;;;;;;;;;23.60;42.70;;;;;;5100976;27;20416;-62
2023/11/21 10:39:18;;;;;;;;;;;23.60;42.70;;;;;;5103945;28;19935;-63
2023/11/21 10:41:48;;;;;;;;;;;23.60;42.70;;;;;;5104362;27;19975;-56
2023/11/21 10:44:20;;;;;;;;;;;23.60;42.60;;;;;;5104588;27;19953;-61
2023/11/21 10:46:55;;;;;;;;;;;23.60;42.40;;;;;;5107269;27;19981;-67
2023/11/21 10:49:27;;;;;;;;;;;23.60;42.80;;;;;;5104901;27;19936;-62
2023/11/21 10:51:55;;;;;;;;;;;23.60;42.20;;;;;;5104491;27;19923;-61
2023/11/21 10:54:23;;;;;;;;;;;23.60;42.10;;;;;;5104860;27;19924;-62
2023/11/21 10:56:53;;;;;;;;;;;23.70;42.10;;;;;;5106095;27;19931;-61
2023/11/21 10:59:24;;;;;;;;;;;23.60;42.00;;;;;;5088523;27;20362;-61
2023/11/21 11:01:52;;;;;;;;;;;23.70;42.00;;;;;;5097126;28;19928;-60
2023/11/21 11:04:22;;;;;;;;;;;23.70;41.90;;;;;;5113170;27;19928;-62
2023/11/21 11:06:51;;;;;;;;;;;23.70;41.90;;;;;;5086593;28;19931;-62
2023/11/21 11:09:18;;;;;;;;;;;23.70;41.90;;;;;;5108012;27;20023;-61
2023/11/21 11:11:46;;;;;;;;;;;23.70;42.20;;;;;;5109217;27;19923;-60
2023/11/21 11:14:13;;;;;;;;;;;23.70;42.40;;;;;;5106082;27;20284;-61
2023/11/21 11:16:41;;;;;;;;;;;23.70;42.80;;;;;;5110590;27;19930;-63
2023/11/21 11:19:13;;;;;;;;;;;23.70;43.00;;;;;;5106727;27;19939;-63
2023/11/21 11:22:00;;;;;;;;;;;23.80;43.20;;;;;;5103952;27;19959;-64
2023/11/21 11:24:44;;;;;;;;;;;23.80;43.30;;;;;;5096943;27;19963;-61
2023/11/21 11:27:21;;;;;;;;;;;23.80;43.00;;;;;;5102028;27;20318;-63
2023/11/21 11:30:08;;;;;;;;;;;23.80;43.00;;;;;;5105279;27;19966;-66
2023/11/21 11:32:43;;;;;;;;;;;23.80;42.80;;;;;;5089682;28;19936;-62
2023/11/21 11:35:16;;;;;;;;;;;23.90;42.80;;;;;;5100932;28;19957;-62
2023/11/21 11:37:43;;;;;;;;;;;23.90;42.80;;;;;;5104734;28;19985;-62
2023/11/21 11:40:11;;;;;;;;;;;23.90;42.70;;;;;;5102326;28;19924;-63
2023/11/21 11:42:56;;;;;;;;;;;23.90;42.60;;;;;;5100381;28;20395;-64
2023/11/21 11:45:28;;;;;;;;;;;24.00;42.60;;;;;;5107820;27;19971;-62
2023/11/21 11:47:59;;;;;;;;;;;24.00;42.60;;;;;;5103263;27;19965;-61
2023/11/21 11:50:27;;;;;;;;;;;24.00;42.50;;;;;;5102283;28;19928;-59
2023/11/21 11:52:54;;;;;;;;;;;24.00;42.50;;;;;;5103571;28;20398;-61
2023/11/21 11:55:22;;;;;;;;;;;24.00;42.50;;;;;;5104005;27;20034;-61
2023/11/21 11:57:51;;;;;;;;;;;24.00;42.40;;;;;;5106927;28;20403;-64
2023/11/21 12:00:37;;;;;;;;;;;24.00;41.90;;;;;;5106069;28;19923;-65
2023/11/21 12:03:05;;;;;;;;;;;24.00;42.00;;;;;;5100800;28;19930;-61
2023/11/21 12:05:35;;;;;;;;;;;24.10;41.80;;;;;;5101920;28;19981;-63
2023/11/21 12:08:03;;;;;;;;;;;24.10;41.80;;;;;;5107695;28;20245;-61
2023/11/21 12:10:31;;;;;;;;;;;24.10;41.90;;;;;;5104496;28;19971;-62
2023/11/21 12:13:01;;;;;;;;;;;24.10;42.00;;;;;;5084486;28;19924;-62
2023/11/21 12:15:31;;;;;;;;;;;24.10;42.00;;;;;;5102176;27;20010;-60
2023/11/21 12:18:01;;;;;;;;;;;24.10;42.30;;;;;;5109695;27;20068;-62
2023/11/21 12:20:28;;;;;;;;;;;24.10;42.10;;;;;;5109212;27;20005;-60
2023/11/21 12:22:59;;;;;;;;;;;24.10;42.10;;;;;;5104941;27;19923;-59
2023/11/21 12:25:28;;;;;;;;;;;24.10;42.20;;;;;;5108034;27;20003;-62
2023/11/21 12:27:56;;;;;;;;;;;24.10;42.30;;;;;;5105879;27;19954;-60
2023/11/21 12:30:27;;;;;;;;;;;24.10;42.30;;;;;;5105366;27;19969;-64
2023/11/21 12:32:58;;;;;;;;;;;24.10;42.20;;;;;;5107104;27;20311;-61
2023/11/21 12:35:26;;;;;;;;;;;24.10;42.10;;;;;;5117563;27;19938;-59
2023/11/21 12:37:54;;;;;;;;;;;24.10;42.10;;;;;;5106098;27;19997;-62
2023/11/21 12:40:22;;;;;;;;;;;24.10;42.10;;;;;;5103973;27;19932;-62
2023/11/21 12:42:53;;;;;;;;;;;24.10;42.10;;;;;;5101800;27;20280;-61
2023/11/21 12:45:21;;;;;;;;;;;24.10;42.20;;;;;;5107133;28;20008;-63
2023/11/21 12:47:50;;;;;;;;;;;24.20;42.30;;;;;;5113699;27;19924;-65
2023/11/21 12:50:28;;;;;;;;;;;24.20;42.30;;;;;;5090471;28;19927;-61
2023/11/21 12:53:04;;;;;;;;;;;24.20;42.20;;;;;;5087337;28;20342;-67
2023/11/21 12:55:32;;;;;;;;;;;24.10;42.20;;;;;;5107387;27;20330;-62
2023/11/21 12:58:08;;;;;;;;;;;24.20;42.30;;;;;;5106438;27;19932;-61
2023/11/21 13:00:42;;;;;;;;;;;24.10;42.20;;;;;;5104106;27;20027;-62
2023/11/21 13:03:12;;;;;;;;;;;24.10;42.20;;;;;;5105677;28;20273;-63
2023/11/21 13:05:44;;;;;;;;;;;24.10;42.20;;;;;;5107098;28;19942;-61
2023/11/21 13:08:19;;;;;;;;;;;24.10;42.20;;;;;;5100154;28;20026;-61
2023/11/21 13:10:52;;;;;;;;;;;24.10;42.30;;;;;;5108527;27;19932;-62
2023/11/21 13:13:19;;;;;;;;;;;24.10;42.30;;;;;;5109601;27;20359;-62
2023/11/21 13:16:00;;;;;;;;;;;24.00;42.30;;;;;;5099529;28;19927;-63
2023/11/21 13:18:28;;;;;;;;;;;24.00;42.30;;;;;;5100822;27;20367;-63
2023/11/21 13:20:57;;;;;;;;;;;24.00;42.20;;;;;;5108517;27;20552;-58
2023/11/21 13:23:25;;;;;;;;;;;24.00;42.10;;;;;;5109075;27;19932;-61
2023/11/21 13:25:53;;;;;;;;;;;24.10;42.10;;;;;;5107457;27;19953;-61
2023/11/21 13:28:32;;;;;;;;;;;24.00;41.90;;;;;;5104817;28;19931;-62
2023/11/21 13:31:22;;;;;;;;;;;24.00;41.90;;;;;;5107377;28;19924;-61
2023/11/21 13:33:58;;;;;;;;;;;24.00;41.80;;;;;;5110168;27;19935;-61
2023/11/21 13:36:30;;;;;;;;;;;24.00;41.80;;;;;;5106785;27;19963;-62
2023/11/21 13:38:58;;;;;;;;;;;23.90;41.90;;;;;;5104031;27;19932;-62
2023/11/21 13:41:30;;;;;;;;;;;23.90;42.00;;;;;;5104079;27;19931;-61
2023/11/21 13:44:15;;;;;;;;;;;23.90;42.00;;;;;;5106027;27;19963;-60
2023/11/21 13:46:43;;;;;;;;;;;23.90;42.00;;;;;;5103314;27;19924;-60
2023/11/21 13:49:11;;;;;;;;;;;23.90;42.20;;;;;;5106344;27;19927;-61
2023/11/21 13:51:44;;;;;;;;;;;23.90;42.40;;;;;;5105350;27;20022;-61
2023/11/21 13:54:12;;;;;;;;;;;23.90;42.50;;;;;;5107126;27;19928;-61
2023/11/21 13:56:41;;;;;;;;;;;23.80;42.50;;;;;;5089810;28;20337;-61
2023/11/21 13:59:23;;;;;;;;;;;23.80;42.60;;;;;;5101308;27;19924;-61
2023/11/21 14:01:55;;;;;;;;;;;23.90;42.60;;;;;;5098658;27;20447;-61
2023/11/21 14:04:38;;;;;;;;;;;23.80;42.70;;;;;;5104403;27;19943;-61
2023/11/21 14:09:53;;;;;;;;;;;23.80;42.80;;;;;;5101702;28;20022;-61
2023/11/21 14:12:21;;;;;;;;;;;23.70;42.80;;;;;;5100295;27;19927;-60
2023/11/21 14:14:48;;;;;;;;;;;23.70;43.00;;;;;;5107476;27;19935;-61
2023/11/21 14:17:15;;;;;;;;;;;23.70;43.70;;;;;;5102628;27;19936;-60
2023/11/21 14:19:43;;;;;;;;;;;23.70;43.20;;;;;;5103950;27;19924;-60
2023/11/21 14:22:11;;;;;;;;;;;23.70;43.20;;;;;;5099650;27;19963;-62
2023/11/21 14:24:43;;;;;;;;;;;23.70;43.30;;;;;;5103115;27;19928;-60
2023/11/21 14:27:11;;;;;;;;;;;23.70;43.30;;;;;;5082552;27;20072;-60